Historique des stations

Station météo de Maintenon

Altitude de la station : 131 m







Données météorologiques pour le 16/09/2021
Date
Heure
Températures Humidité Point de rosée Vitesse
du vent
Direction Rafales Windchill Pression Pluviométrie
Cumul
Date
Heure
Températures Humidité Point de rosée Vitesse
du vent
Direction Rafales Windchill Pression Pluviométrie
Cumul
16/09/2021 12:5619.4 °C72 %14.4 °C-NE13 km/h19.4 1019 hPa-
16/09/2021 12:4019.5 °C73 %14.4 °C-E13 km/h19.4 1019 hPa-
16/09/2021 12:2618.9 °C72 %13.9 °C5 km/hNNE13 km/h18.9 1019 hPa-
16/09/2021 12:1019.3 °C73 %14.4 °C3 km/hNNE13 km/h19.4 1019 hPa-
16/09/2021 11:5519.1 °C73 %13.9 °C-NNO8 km/h18.9 1019 hPa-
16/09/2021 11:3920.2 °C72 %15.0 °C-NNE8 km/h20.0 1019 hPa-
16/09/2021 11:2319.2 °C77 %15.0 °C-S6 km/h19.4 1019 hPa-
16/09/2021 11:0919.2 °C79 %15.6 °C6 km/hNNE6 km/h19.4 1019 hPa-
16/09/2021 10:5418.7 °C80 %15.0 °C-E6 km/h18.9 1019 hPa-
16/09/2021 10:3817.3 °C83 %14.4 °C2 km/hNNE6 km/h17.2 1019 hPa-
16/09/2021 10:2217.2 °C85 %14.4 °C-NE6 km/h17.2 1019 hPa-
16/09/2021 10:0716.6 °C87 %14.4 °C3 km/hN6 km/h16.7 1019 hPa-
16/09/2021 09:5115.8 °C90 %14.4 °C-NE6 km/h16.1 1019 hPa-
16/09/2021 09:3515.2 °C92 %13.9 °C-NNO6 km/h15.0 1019 hPa-
16/09/2021 09:2014.7 °C93 %13.3 °C-NNE6 km/h14.4 1019 hPa-
16/09/2021 09:0513.9 °C95 %13.3 °C-NNE6 km/h13.9 1019 hPa-
16/09/2021 08:4913.5 °C95 %12.8 °C-NNE6 km/h13.3 1019 hPa-
16/09/2021 08:3513.4 °C96 %12.8 °C-NNE6 km/h13.3 1019 hPa-
16/09/2021 08:1812.5 °C95 %11.7 °C-NNE6 km/h12.8 1018 hPa-
16/09/2021 08:0312.7 °C94 %11.7 °C-NNE6 km/h12.8 1018 hPa-
16/09/2021 07:4913.1 °C94 %12.2 °C-NNE6 km/h13.3 1018 hPa-
16/09/2021 07:3313.4 °C94 %12.2 °C-N6 km/h13.3 1018 hPa-
16/09/2021 07:1813.4 °C94 %12.2 °C-NNE6 km/h13.3 1018 hPa-
16/09/2021 07:0313.5 °C94 %12.8 °C-NNO6 km/h13.3 1018 hPa-
16/09/2021 06:5313.6 °C94 %12.8 °C-N6 km/h13.3 1018 hPa-
16/09/2021 06:3713.6 °C93 %12.8 °C-N6 km/h13.3 1018 hPa-
16/09/2021 06:3313.6 °C93 %12.8 °C-NNE6 km/h13.9 1018 hPa-
16/09/2021 06:1713.7 °C93 %12.8 °C-NE6 km/h13.9 1018 hPa-
16/09/2021 06:0313.9 °C93 %12.8 °C-NNO6 km/h13.9 1018 hPa-
16/09/2021 05:4714.2 °C92 %12.8 °C-NNE6 km/h14.4 1018 hPa-
16/09/2021 05:3114.2 °C93 %13.3 °C-NNE6 km/h14.4 1018 hPa-
16/09/2021 05:1714.3 °C93 %13.3 °C-NNE6 km/h14.4 1018 hPa-
16/09/2021 05:0014.3 °C93 %13.3 °C-N5 km/h14.4 1018 hPa-
16/09/2021 04:4614.4 °C93 %13.3 °C-N5 km/h14.4 1018 hPa-
16/09/2021 04:3014.4 °C92 %13.3 °C3 km/hNNO5 km/h14.4 1018 hPa-
16/09/2021 04:1414.5 °C93 %13.3 °C-NNO3 km/h14.4 1017 hPa-
16/09/2021 03:5914.5 °C94 %13.3 °C-NNO3 km/h14.4 1017 hPa-
16/09/2021 03:4314.4 °C94 %13.3 °C-NNO3 km/h14.4 1018 hPa-
16/09/2021 03:2914.3 °C95 %13.3 °C-N3 km/h14.4 1017 hPa-
16/09/2021 03:1314.2 °C95 %13.3 °C-N3 km/h14.4 1017 hPa-
16/09/2021 02:5713.9 °C95 %13.3 °C-ENE3 km/h13.9 1017 hPa-
16/09/2021 02:4313.8 °C95 %12.8 °C-ENE3 km/h13.9 1017 hPa-
16/09/2021 02:2713.8 °C94 %12.8 °C-ENE3 km/h13.9 1017 hPa-
16/09/2021 02:1113.8 °C94 %12.8 °C-ENE3 km/h13.9 1017 hPa-
16/09/2021 01:5614.1 °C94 %13.3 °C-ENE3 km/h13.9 1017 hPa-
16/09/2021 01:4014.2 °C93 %13.3 °C-ENE3 km/h14.4 1017 hPa-
16/09/2021 01:2614.7 °C93 %13.3 °C-ENE3 km/h14.4 1017 hPa-
16/09/2021 01:1015.0 °C93 %13.9 °C-ENE3 km/h15.0 1017 hPa-
16/09/2021 00:5414.9 °C92 %13.9 °C-ENE3 km/h15.0 1017 hPa-
16/09/2021 00:4015.2 °C91 %13.9 °C-ENE3 km/h15.0 1017 hPa-
16/09/2021 00:2416.0 °C88 %13.9 °C-ENE3 km/h16.1 1017 hPa-
16/09/2021 00:0816.8 °C86 %14.4 °C3 km/hENE3 km/h16.7 1017 hPa-


Minima :

Température : 12.5 °C
Humidité : 72 %
Point de rosée : 11.7 °C
Vent moyen : 2 km/h
Windchill : 12.8
Pression atm. : 1017 hPa
Maxima :

Température : 20.2 °C
Humidité : 96 %
Point de rosée : 15.6 °C
Vent moyen : 6 km/h
Windchill : 20.0
Pression atm. : 1019 hPa
Rafales max : 13 km/h
Cumul de pluie sur 24H : 0 mm

Maintenon est une commune du département Eure-et-Loir (28).
La station météorologique du réseau de l'association la plus proche de Maintenon est celle de Chaudon
Site du propriétaire de la station : http://meteo.maingournois.pagesperso-orange.fr/



Icône Facebook Association Météo Centre Icône Twitter Association Météo Centre Icône Chaîne Youtube Association Météo Centre Icône contact Association Météo Centre Icône Insta Association Météo Centre